Admiral — WCY6529 — position and weather

sailwx.info

Track history (hours):
 
Tides and Currents Weather Stations Pressure Air Temp Water Temp Dewpoint Dewpoint Depression Visibility Wind Speed Wind Dir Waves Ship Positions

Admiral

Owner: Crowley Marine Services, SEATTLE, WA. More information available from US FCC via Universal Licensing System and Coast Guard Vessel Documentation Center.

Last reported at 2017-Jun-23 14:59 UTC. Time now 2017-Jun-23 15:23 UTC.
Position N 33°46' W 118°13'.

; draft 5.3 m.

Type: Tug. MMSI: 366755020.

Date/timePositionNaut miles runAvg speedWind from/ knotsBaromVisibWave heightAir tempDewpointWater temp
2017-Jun-23 14:59N 33°46' W 118°13'0 0.3
2017-Jun-23 13:54N 33°46' W 118°13'2 4.1
2017-Jun-23 13:21N 33°44' W 118°12'0 0.9
2017-Jun-23 13:00N 33°44' W 118°12'0 0.3
2017-Jun-23 12:30N 33°44' W 118°12'1 1.3
2017-Jun-23 12:00N 33°44' W 118°12'2 4.1
2017-Jun-23 11:30N 33°46' W 118°13'1 1.1
2017-Jun-23 11:00N 33°46' W 118°13'0 0.1
2017-Jun-23 10:28N 33°46' W 118°13'0 0.1
2017-Jun-23 09:59N 33°46' W 118°13'0 0.2
2017-Jun-23 09:30N 33°46' W 118°13'3 6.9
2017-Jun-23 09:00N 33°43' W 118°14'2 3.8
2017-Jun-23 08:21N 33°44' W 118°17'0 0.0
2017-Jun-23 07:50N 33°44' W 118°17'0 0.0
2017-Jun-23 07:24N 33°44' W 118°17'0 0.0
2017-Jun-23 06:45N 33°44' W 118°17'0 0.0
2017-Jun-23 06:28N 33°44' W 118°17'0 0.0
2017-Jun-23 06:00N 33°44' W 118°17'0 0.0
2017-Jun-23 05:30N 33°44' W 118°17'0 0.0
2017-Jun-23 05:00N 33°44' W 118°17'0 0.0
2017-Jun-23 04:30N 33°44' W 118°17'0 0.0
2017-Jun-23 03:59N 33°44' W 118°17'0 0.0
2017-Jun-23 03:30N 33°44' W 118°17'0 0.0
2017-Jun-23 03:00N 33°44' W 118°17'1 1.3
2017-Jun-23 02:30N 33°45' W 118°16'0 0.2
2017-Jun-23 02:00N 33°45' W 118°16'2 3.2
2017-Jun-23 01:30N 33°44' W 118°15'1 1.1
2017-Jun-23 01:00N 33°44' W 118°16'2 4.8
2017-Jun-23 00:31N 33°42' W 118°14'2 3.1
2017-Jun-23 00:00N 33°43' W 118°14'2 3.9
2017-Jun-22 23:30N 33°43' W 118°16'2 3.2
2017-Jun-22 22:54N 33°45' W 118°16'0 0.0
2017-Jun-22 22:28N 33°45' W 118°16'0 1.0
2017-Jun-22 22:00N 33°45' W 118°16'2 4.9
2017-Jun-22 21:30N 33°43' W 118°15'3 3.3
2017-Jun-22 20:44N 33°45' W 118°13'0 0.0
2017-Jun-22 20:30N 33°45' W 118°13'0 0.9
2017-Jun-22 20:00N 33°45' W 118°13'1 1.5
2017-Jun-22 19:29N 33°45' W 118°13'0 0.1
2017-Jun-22 19:00N 33°45' W 118°13'1 1.1
2017-Jun-22 18:30N 33°45' W 118°13'2 4.6
2017-Jun-22 18:00N 33°43' W 118°11'3 6.1
2017-Jun-22 17:30N 33°40' W 118°11'0 0.7
2017-Jun-22 17:00N 33°40' W 118°10'3 6.8
2017-Jun-22 16:31N 33°43' W 118°11'2 1.6
2017-Jun-22 15:04N 33°45' W 118°13'0 0.0
2017-Jun-22 14:55N 33°45' W 118°13'0 0.6
2017-Jun-22 14:30N 33°45' W 118°13'2 1.9
2017-Jun-22 13:30N 33°44' W 118°11'1 0.9
2017-Jun-22 12:54N 33°44' W 118°12'1 3.1
2017-Jun-22 12:29N 33°45' W 118°13'0 0.5
2017-Jun-22 12:00N 33°45' W 118°12'0 0.6
2017-Jun-22 11:30N 33°44' W 118°12'3 5.5
2017-Jun-22 11:00N 33°43' W 118°15'2 4.8
2017-Jun-22 10:30N 33°45' W 118°16'1 2.8
2017-Jun-22 09:59N 33°46' W 118°15'1 2.4
2017-Jun-22 09:30N 33°45' W 118°16'1 1.7
2017-Jun-22 09:00N 33°44' W 118°17'0 0.0
2017-Jun-22 08:30N 33°44' W 118°17'0 0.0
2017-Jun-22 08:00N 33°44' W 118°17'0 0.0
2017-Jun-22 07:30N 33°44' W 118°17'1 2.7
2017-Jun-22 07:00N 33°46' W 118°16'0 0.0
2017-Jun-22 06:30N 33°46' W 118°16'0 0.0
2017-Jun-22 06:00N 33°46' W 118°16'0 0.7
2017-Jun-22 05:30N 33°45' W 118°16'1 1.1
2017-Jun-22 05:00N 33°46' W 118°16'1 2.1
2017-Jun-22 04:30N 33°45' W 118°16'1 1.2
2017-Jun-22 04:00N 33°44' W 118°17'0 0.0
2017-Jun-22 03:30N 33°44' W 118°17'0 0.0
2017-Jun-22 03:00N 33°44' W 118°17'0 0.0
2017-Jun-22 02:30N 33°44' W 118°17'0 0.0
2017-Jun-22 02:00N 33°44' W 118°17'0 0.0
2017-Jun-22 01:30N 33°44' W 118°17'0 0.0
2017-Jun-22 01:00N 33°44' W 118°17'2 3.1
2017-Jun-22 00:30N 33°43' W 118°17'0 1.0
2017-Jun-22 00:01N 33°43' W 118°16'2 5.0
2017-Jun-21 23:31N 33°44' W 118°13'0 0.1
2017-Jun-21 23:01N 33°44' W 118°13'0 0.2
2017-Jun-21 22:30N 33°44' W 118°14'1 1.4
2017-Jun-21 22:00N 33°45' W 118°13'1 1.7
2017-Jun-21 21:30N 33°45' W 118°14'1 2.6
2017-Jun-21 21:00N 33°44' W 118°13'3 5.7
2017-Jun-21 20:30N 33°45' W 118°17'0 0.5
2017-Jun-21 20:00N 33°44' W 118°17'0 0.0
2017-Jun-21 19:30N 33°44' W 118°17'0 0.0
2017-Jun-21 19:00N 33°44' W 118°17'0 0.0
2017-Jun-21 18:30N 33°44' W 118°17'0 0.0
2017-Jun-21 18:00N 33°44' W 118°17'0 0.0
2017-Jun-21 17:30N 33°44' W 118°17'0 0.0
2017-Jun-21 17:00N 33°44' W 118°17'0 0.0
2017-Jun-21 16:30N 33°44' W 118°17'0 0.0
2017-Jun-21 16:00N 33°44' W 118°17'0 0.0
2017-Jun-21 15:27N 33°44' W 118°17'2 3.7
2017-Jun-21 15:00N 33°43' W 118°16'3 6.6
2017-Jun-21 14:30N 33°45' W 118°13'0 0.2
2017-Jun-21 13:24N 33°45' W 118°13'2 4.0
2017-Jun-21 12:54N 33°44' W 118°12'0 0.4
2017-Jun-21 12:30N 33°44' W 118°12'2 3.4
2017-Jun-21 12:00N 33°43' W 118°14'3 5.4
2017-Jun-21 11:30N 33°44' W 118°17'0 0.4
2017-Jun-21 11:00N 33°44' W 118°17'0 0.0
2017-Jun-21 10:30N 33°44' W 118°17'0 0.0
2017-Jun-21 10:00N 33°44' W 118°17'0 0.0
2017-Jun-21 09:30N 33°44' W 118°17'0 0.0
2017-Jun-21 09:00N 33°44' W 118°17'0 0.0
2017-Jun-21 08:30N 33°44' W 118°17'0 0.0
2017-Jun-21 08:00N 33°44' W 118°17'0 0.0
2017-Jun-21 07:30N 33°44' W 118°17'0 0.0
2017-Jun-21 07:00N 33°44' W 118°17'0 0.0
2017-Jun-21 06:30N 33°44' W 118°17'0 0.0
2017-Jun-21 06:00N 33°44' W 118°17'0 0.0
2017-Jun-21 05:30N 33°44' W 118°17'0 0.0
2017-Jun-21 05:00N 33°44' W 118°17'0 0.0
2017-Jun-21 04:30N 33°44' W 118°17'0 0.0
2017-Jun-21 04:00N 33°44' W 118°17'0 0.0
2017-Jun-21 03:30N 33°44' W 118°17'0 0.0
2017-Jun-21 03:00N 33°44' W 118°17'0 0.0
2017-Jun-21 02:30N 33°44' W 118°17'1 2.1
2017-Jun-21 02:00N 33°45' W 118°16'1 1.1
2017-Jun-21 01:30N 33°46' W 118°16'0 0.1
2017-Jun-21 01:00N 33°46' W 118°16'0 0.9
2017-Jun-21 00:30N 33°45' W 118°16'2 4.1
2017-Jun-21 00:01N 33°43' W 118°16'1 2.7
2017-Jun-20 23:31N 33°43' W 118°15'2 3.0
2017-Jun-20 23:00N 33°44' W 118°16'2 4.6
2017-Jun-20 22:30N 33°46' W 118°16'0 0.3
2017-Jun-20 22:00N 33°46' W 118°16'1 1.9
2017-Jun-20 21:30N 33°45' W 118°16'2 5.0
2017-Jun-20 21:00N 33°43' W 118°15'1 2.3
2017-Jun-20 20:31N 33°43' W 118°16'1 2.5
2017-Jun-20 20:00N 33°44' W 118°17'0 0.0
2017-Jun-20 19:30N 33°44' W 118°17'0 0.0
2017-Jun-20 19:01N 33°44' W 118°17'0 0.0
2017-Jun-20 18:30N 33°44' W 118°17'0 0.0
2017-Jun-20 18:00N 33°44' W 118°17'0 0.0
2017-Jun-20 17:30N 33°44' W 118°17'0 0.0
2017-Jun-20 17:00N 33°44' W 118°17'0 0.0
2017-Jun-20 16:30N 33°44' W 118°17'0 0.0
2017-Jun-20 16:00N 33°44' W 118°17'0 0.0
2017-Jun-20 15:30N 33°44' W 118°17'0 0.0
2017-Jun-20 14:56N 33°44' W 118°17'3 3.5
2017-Jun-20 14:00N 33°45' W 118°13'1 1.9
2017-Jun-20 13:29N 33°45' W 118°13'0 0.1
2017-Jun-20 13:00N 33°45' W 118°13'0 0.1
2017-Jun-20 12:27N 33°46' W 118°13'0 0.0
2017-Jun-20 12:00N 33°46' W 118°13'1 2.1
2017-Jun-20 11:30N 33°45' W 118°14'0 0.4
2017-Jun-20 11:00N 33°45' W 118°14'2 4.4
2017-Jun-20 10:30N 33°44' W 118°12'0 0.5
2017-Jun-20 09:59N 33°44' W 118°12'1 1.7
2017-Jun-20 09:26N 33°43' W 118°13'3 7.1
2017-Jun-20 09:00N 33°44' W 118°16'1 1.3
2017-Jun-20 08:30N 33°44' W 118°17'0 0.0
2017-Jun-20 08:00N 33°44' W 118°17'0 0.0
2017-Jun-20 07:30N 33°44' W 118°17'0 0.0
2017-Jun-20 07:00N 33°44' W 118°17'0 0.0
2017-Jun-20 06:30N 33°44' W 118°17'0 0.0
2017-Jun-20 05:59N 33°44' W 118°17'0 0.0
2017-Jun-20 05:30N 33°44' W 118°17'0 0.0
2017-Jun-20 05:00N 33°44' W 118°17'2 3.2
2017-Jun-20 04:30N 33°43' W 118°16'3 6.7
2017-Jun-20 04:00N 33°46' W 118°13'1 1.2
2017-Jun-20 03:30N 33°46' W 118°13'0 0.0
2017-Jun-20 03:00N 33°46' W 118°13'2 3.1
2017-Jun-20 02:30N 33°45' W 118°13'2 4.6
2017-Jun-20 02:01N 33°43' W 118°11'0 0.4
2017-Jun-20 01:31N 33°43' W 118°11'3 5.4
2017-Jun-20 01:01N 33°46' W 118°13'1 1.7
2017-Jun-20 00:30N 33°46' W 118°13'0 0.7
2017-Jun-20 00:00N 33°46' W 118°13'1 2.0
2017-Jun-19 23:30N 33°45' W 118°13'0 0.0
2017-Jun-19 23:00N 33°45' W 118°13'1 2.0
2017-Jun-19 22:30N 33°44' W 118°13'2 3.9
2017-Jun-19 22:00N 33°44' W 118°16'0 0.8
2017-Jun-19 21:30N 33°43' W 118°16'1 2.3
2017-Jun-19 21:01N 33°43' W 118°15'0 0.7
2017-Jun-19 20:30N 33°43' W 118°15'2 4.3
2017-Jun-19 20:00N 33°44' W 118°17'0 0.0
2017-Jun-19 19:29N 33°44' W 118°17'0 0.0
2017-Jun-19 19:00N 33°44' W 118°17'0 0.0
2017-Jun-19 18:08N 33°44' W 118°17'0 1.5
2017-Jun-19 18:00N 33°44' W 118°17'3 5.4
2017-Jun-19 17:31N 33°44' W 118°13'1 2.4
2017-Jun-19 17:00N 33°45' W 118°13'1 2.2
2017-Jun-19 16:31N 33°44' W 118°13'1 1.2
2017-Jun-19 16:00N 33°44' W 118°12'0 0.4
2017-Jun-19 15:30N 33°44' W 118°13'0 0.1
2017-Jun-19 15:00N 33°44' W 118°12'1 1.9
2017-Jun-19 14:30N 33°45' W 118°13'2 2.1
2017-Jun-19 13:30N 33°44' W 118°11'2 3.2
2017-Jun-19 13:00N 33°44' W 118°12'2 4.0
2017-Jun-19 12:30N 33°45' W 118°15'0 0.1
2017-Jun-19 12:00N 33°45' W 118°14'1 2.1
2017-Jun-19 11:31N 33°45' W 118°13'2 3.9
2017-Jun-19 11:00N 33°44' W 118°11'0 0.6
2017-Jun-19 10:30N 33°44' W 118°12'1 2.7
2017-Jun-19 10:00N 33°43' W 118°13'3 6.0
2017-Jun-19 09:30N 33°44' W 118°17'0 0.0
2017-Jun-19 09:00N 33°44' W 118°17'1 1.4
2017-Jun-19 08:31N 33°45' W 118°16'0 0.5
2017-Jun-19 08:00N 33°45' W 118°16'1 1.9
2017-Jun-19 07:31N 33°44' W 118°17'3 4.9
2017-Jun-19 06:59N 33°43' W 118°14'3 6.9
2017-Jun-19 06:30N 33°44' W 118°10'0 0.5
2017-Jun-19 05:58N 33°44' W 118°10'0 0.2
2017-Jun-19 05:30N 33°44' W 118°10'3 5.1
2017-Jun-19 05:00N 33°43' W 118°13'3 6.8
2017-Jun-19 04:30N 33°44' W 118°17'0 0.4
2017-Jun-19 04:00N 33°44' W 118°17'0 0.0
2017-Jun-19 03:30N 33°44' W 118°17'0 0.0
2017-Jun-19 03:00N 33°44' W 118°17'0 0.0
2017-Jun-19 02:30N 33°44' W 118°17'1 2.6
2017-Jun-19 02:00N 33°43' W 118°16'1 1.7
2017-Jun-19 01:31N 33°44' W 118°15'0 0.3
2017-Jun-19 01:00N 33°44' W 118°15'1 1.3
2017-Jun-19 00:30N 33°44' W 118°16'1 2.4
2017-Jun-19 00:00N 33°44' W 118°17'0 0.0
2017-Jun-18 23:30N 33°44' W 118°17'0 0.0
2017-Jun-18 23:00N 33°44' W 118°17'0 0.0
2017-Jun-18 22:30N 33°44' W 118°17'0 0.0
2017-Jun-18 22:00N 33°44' W 118°17'0 0.0
2017-Jun-18 21:30N 33°44' W 118°17'0 0.0
2017-Jun-18 21:00N 33°44' W 118°17'0 0.0
2017-Jun-18 20:30N 33°44' W 118°17'0 0.0
2017-Jun-18 20:00N 33°44' W 118°17'0 0.0
2017-Jun-18 19:28N 33°44' W 118°17'0 0.0
2017-Jun-18 18:52N 33°44' W 118°17'0 0.0
2017-Jun-18 17:30N 33°44' W 118°17'0 0.0
2017-Jun-18 16:57N 33°44' W 118°17'0 0.0
2017-Jun-18 16:30N 33°44' W 118°17'0 0.0
2017-Jun-18 16:00N 33°44' W 118°17'2 4.4
2017-Jun-18 15:30N 33°43' W 118°15'4 7.3
2017-Jun-18 15:00N 33°46' W 118°13'0 0.0
2017-Jun-18 14:30N 33°46' W 118°13'0 0.3
2017-Jun-18 14:00N 33°46' W 118°13'1 2.0
2017-Jun-18 13:30N 33°45' W 118°13'2 4.2
2017-Jun-18 13:00N 33°43' W 118°12'0 0.7
2017-Jun-18 12:30N 33°44' W 118°12'0 0.8
2017-Jun-18 12:00N 33°44' W 118°12'2 4.6
2017-Jun-18 11:30N 33°46' W 118°13'0 0.2
2017-Jun-18 10:57N 33°46' W 118°13'1 1.6
2017-Jun-18 10:30N 33°45' W 118°13'0 0.0
2017-Jun-18 10:00N 33°45' W 118°13'0 0.0
2017-Jun-18 09:30N 33°45' W 118°13'0 0.0
2017-Jun-18 09:00N 33°45' W 118°13'0 0.0
2017-Jun-18 08:30N 33°45' W 118°13'0 0.0
2017-Jun-18 08:00N 33°45' W 118°13'0 0.6
2017-Jun-18 07:30N 33°45' W 118°13'2 3.4
2017-Jun-18 07:00N 33°44' W 118°12'3 5.4
2017-Jun-18 06:30N 33°41' W 118°11'1 2.9
2017-Jun-18 06:01N 33°40' W 118°10'1 1.9
2017-Jun-18 05:30N 33°40' W 118°09'2 5.0
2017-Jun-18 05:01N 33°42' W 118°10'4 7.7
2017-Jun-18 04:30N 33°45' W 118°13'1 2.2
2017-Jun-18 04:00N 33°46' W 118°13'0 0.2
2017-Jun-18 03:30N 33°46' W 118°13'1 2.6
2017-Jun-18 03:00N 33°45' W 118°13'0 0.0
2017-Jun-18 02:30N 33°45' W 118°13'0 0.0
2017-Jun-18 02:00N 33°45' W 118°13'0 0.0
2017-Jun-18 01:30N 33°45' W 118°13'0 0.0
2017-Jun-18 01:00N 33°45' W 118°13'0 0.0
2017-Jun-18 00:30N 33°45' W 118°13'0 0.0
2017-Jun-18 00:00N 33°45' W 118°13'0 0.0
2017-Jun-17 23:30N 33°45' W 118°13'0 0.0
2017-Jun-17 23:00N 33°45' W 118°13'0 0.0
2017-Jun-17 22:30N 33°45' W 118°13'0 0.0
2017-Jun-17 22:00N 33°45' W 118°13'0 0.0
2017-Jun-17 21:30N 33°45' W 118°13'0 0.0
2017-Jun-17 21:00N 33°45' W 118°13'0 0.1
2017-Jun-17 20:30N 33°45' W 118°13'1 2.6
2017-Jun-17 20:00N 33°46' W 118°13'2 3.2
2017-Jun-17 19:30N 33°45' W 118°13'2 3.4
2017-Jun-17 19:00N 33°44' W 118°12'2 3.9
2017-Jun-17 18:30N 33°45' W 118°13'1 2.8
2017-Jun-17 18:00N 33°46' W 118°13'0 0.4
2017-Jun-17 17:30N 33°46' W 118°13'0 0.0
2017-Jun-17 17:00N 33°46' W 118°13'0 0.0
2017-Jun-17 16:30N 33°46' W 118°13'1 2.7
2017-Jun-17 16:00N 33°45' W 118°13'0 0.0
2017-Jun-17 15:26N 33°45' W 118°13'0 0.0
2017-Jun-17 14:46N 33°45' W 118°13'0 0.0
2017-Jun-17 14:29N 33°45' W 118°13'0 0.0
2017-Jun-17 13:30N 33°45' W 118°13'0 0.6
2017-Jun-17 13:01N 33°45' W 118°13'1 2.5
2017-Jun-17 12:31N 33°44' W 118°12'0 0.8
2017-Jun-17 12:01N 33°44' W 118°12'0 0.3
2017-Jun-17 11:30N 33°44' W 118°12'3 6.6
2017-Jun-17 11:01N 33°43' W 118°16'1 2.9
2017-Jun-17 10:30N 33°44' W 118°17'0 0.0
2017-Jun-17 09:59N 33°44' W 118°17'0 0.0
2017-Jun-17 09:30N 33°44' W 118°17'0 0.0
2017-Jun-17 09:00N 33°44' W 118°17'0 0.0
2017-Jun-17 08:30N 33°44' W 118°17'0 0.0
2017-Jun-17 08:00N 33°44' W 118°17'0 0.0
2017-Jun-17 07:30N 33°44' W 118°17'0 0.0
2017-Jun-17 07:00N 33°44' W 118°17'0 0.0
2017-Jun-17 06:30N 33°44' W 118°17'0 0.0
2017-Jun-17 06:00N 33°44' W 118°17'2 1.9
2017-Jun-17 05:07N 33°46' W 118°16'0 0.8
2017-Jun-17 05:00N 33°46' W 118°16'0 0.6
2017-Jun-17 04:30N 33°45' W 118°16'3 4.5
2017-Jun-17 03:54N 33°43' W 118°15'1 3.1
2017-Jun-17 03:30N 33°43' W 118°14'0 0.1
2017-Jun-17 03:00N 33°43' W 118°14'3 5.5
2017-Jun-17 02:30N 33°44' W 118°17'0 0.0
2017-Jun-17 01:59N 33°44' W 118°17'0 0.0
2017-Jun-17 01:24N 33°44' W 118°17'0 0.0
2017-Jun-17 00:59N 33°44' W 118°17'0 0.0
2017-Jun-17 00:21N 33°44' W 118°17'0 0.0
2017-Jun-17 00:00N 33°44' W 118°17'0 0.0
2017-Jun-16 23:30N 33°44' W 118°17'0 0.0
2017-Jun-16 23:00N 33°44' W 118°17'0 0.0
2017-Jun-16 22:30N 33°44' W 118°17'0 0.0
2017-Jun-16 22:00N 33°44' W 118°17'0 0.0
2017-Jun-16 21:30N 33°44' W 118°17'0 0.0
2017-Jun-16 21:00N 33°44' W 118°17'0 0.0
2017-Jun-16 20:30N 33°44' W 118°17'0 0.0
2017-Jun-16 20:00N 33°44' W 118°17'0 0.0
2017-Jun-16 19:30N 33°44' W 118°17'0 0.0
2017-Jun-16 19:00N 33°44' W 118°17'0 0.0
2017-Jun-16 18:30N 33°44' W 118°17'0 0.0
2017-Jun-16 18:00N 33°44' W 118°17'0 0.0
2017-Jun-16 17:30N 33°44' W 118°17'0 0.0
2017-Jun-16 16:59N 33°44' W 118°17'2 3.4
2017-Jun-16 16:30N 33°43' W 118°16'4 7.1
2017-Jun-16 16:01N 33°46' W 118°13'0 0.7
2017-Jun-16 15:30N 33°46' W 118°13'0 0.3
2017-Jun-16 15:00N 33°46' W 118°13'3 2.7
2017-Jun-16 14:00N 33°44' W 118°13'1 2.6
2017-Jun-16 13:30N 33°43' W 118°14'2 3.9
2017-Jun-16 13:00N 33°44' W 118°16'2 3.2
2017-Jun-16 12:31N 33°45' W 118°17'0 0.8
2017-Jun-16 12:00N 33°46' W 118°17'0 0.1
2017-Jun-16 11:30N 33°46' W 118°17'0 0.1
2017-Jun-16 11:00N 33°46' W 118°17'1 3.0
2017-Jun-16 10:30N 33°44' W 118°17'0 0.0
2017-Jun-16 10:00N 33°44' W 118°17'0 0.0
2017-Jun-16 09:30N 33°44' W 118°17'0 0.0
2017-Jun-16 09:00N 33°44' W 118°17'0 0.0
2017-Jun-16 08:30N 33°44' W 118°17'0 0.0
2017-Jun-16 08:00N 33°44' W 118°17'0 0.0
2017-Jun-16 07:30N 33°44' W 118°17'0 0.0
2017-Jun-16 07:00N 33°44' W 118°17'0 0.0
2017-Jun-16 06:30N 33°44' W 118°17'0 0.0
2017-Jun-16 06:00N 33°44' W 118°17'0 0.0
2017-Jun-16 05:30N 33°44' W 118°17'0 0.0
2017-Jun-16 04:53N 33°44' W 118°17'0 0.0
2017-Jun-16 04:29N 33°44' W 118°17'0 0.0
2017-Jun-16 04:00N 33°44' W 118°17'0 0.0
2017-Jun-16 03:20N 33°44' W 118°17'0 0.0
2017-Jun-16 02:59N 33°44' W 118°17'0 0.0
2017-Jun-16 02:27N 33°44' W 118°17'0 0.0
2017-Jun-16 02:00N 33°44' W 118°17'0 0.0
2017-Jun-16 01:30N 33°44' W 118°17'0 0.0
2017-Jun-16 01:00N 33°44' W 118°17'0 0.0
2017-Jun-16 00:30N 33°44' W 118°17'0 0.0
2017-Jun-16 00:00N 33°44' W 118°17'0 0.0
2017-Jun-15 23:30N 33°44' W 118°17'2 3.0
2017-Jun-15 23:00N 33°44' W 118°15'0 0.0
2017-Jun-15 22:30N 33°44' W 118°15'1 2.1
2017-Jun-15 22:00N 33°43' W 118°16'1 2.2
2017-Jun-15 21:31N 33°43' W 118°15'1 2.7
2017-Jun-15 21:01N 33°43' W 118°16'1 2.5
2017-Jun-15 20:30N 33°44' W 118°17'0 0.0
2017-Jun-15 20:00N 33°44' W 118°17'0 0.0
2017-Jun-15 19:30N 33°44' W 118°17'0 0.0
2017-Jun-15 19:00N 33°44' W 118°17'0 0.0
2017-Jun-15 18:30N 33°44' W 118°17'0 0.0
2017-Jun-15 18:00N 33°44' W 118°17'0 0.0
2017-Jun-15 17:30N 33°44' W 118°17'0 0.0
2017-Jun-15 17:00N 33°44' W 118°17'1 1.4
2017-Jun-15 16:30N 33°44' W 118°16'2 4.3
2017-Jun-15 16:01N 33°43' W 118°14'2 4.9
2017-Jun-15 15:30N 33°44' W 118°17'1 2.2
2017-Jun-15 15:00N 33°45' W 118°16'0 0.1
2017-Jun-15 14:00N 33°45' W 118°16'1 2.4
2017-Jun-15 13:31N 33°44' W 118°17'2 3.1
2017-Jun-15 13:00N 33°46' W 118°16'0 0.7
2017-Jun-15 12:30N 33°45' W 118°16'0 0.0
2017-Jun-15 12:00N 33°45' W 118°16'0 0.0
2017-Jun-15 11:31N 33°45' W 118°16'2 4.9
2017-Jun-15 11:00N 33°43' W 118°16'1 2.1
2017-Jun-15 10:30N 33°44' W 118°15'1 1.5
2017-Jun-15 10:00N 33°43' W 118°16'1 2.7
2017-Jun-15 09:30N 33°44' W 118°17'0 0.0
2017-Jun-15 09:00N 33°44' W 118°17'0 0.0
2017-Jun-15 08:30N 33°44' W 118°17'0 0.0
2017-Jun-15 08:00N 33°44' W 118°17'0 0.0
2017-Jun-15 07:30N 33°44' W 118°17'0 0.0
2017-Jun-15 07:00N 33°44' W 118°17'0 0.1
2017-Jun-15 06:30N 33°44' W 118°17'0 0.0
2017-Jun-15 06:00N 33°44' W 118°17'0 0.0
2017-Jun-15 05:30N 33°44' W 118°17'0 0.0
2017-Jun-15 05:00N 33°44' W 118°17'0 0.0
2017-Jun-15 04:29N 33°44' W 118°17'0 0.0
2017-Jun-15 04:00N 33°44' W 118°17'0 0.0
2017-Jun-15 03:30N 33°44' W 118°17'0 0.0
2017-Jun-15 03:00N 33°44' W 118°17'0 0.0
2017-Jun-15 02:30N 33°44' W 118°17'0 0.0
2017-Jun-15 01:56N 33°44' W 118°17'0 0.0
2017-Jun-15 01:30N 33°44' W 118°17'1 2.0
2017-Jun-15 01:01N 33°45' W 118°16'1 1.4
2017-Jun-15 00:30N 33°46' W 118°15'2 2.7
2017-Jun-14 23:53N 33°44' W 118°17'0 0.0
2017-Jun-14 23:30N 33°44' W 118°17'0 0.0
2017-Jun-14 23:00N 33°44' W 118°17'0 0.0
2017-Jun-14 22:30N 33°44' W 118°17'0 0.0
2017-Jun-14 22:00N 33°44' W 118°17'0 0.0
2017-Jun-14 21:30N 33°44' W 118°17'1 1.8
2017-Jun-14 21:00N 33°44' W 118°16'2 3.2
2017-Jun-14 20:30N 33°45' W 118°16'0 0.0
2017-Jun-14 20:01N 33°45' W 118°16'1 2.0
2017-Jun-14 19:30N 33°44' W 118°17'0 0.0
2017-Jun-14 19:00N 33°44' W 118°17'0 0.0
2017-Jun-14 18:30N 33°44' W 118°17'0 0.0
2017-Jun-14 18:00N 33°44' W 118°17'0 0.0
2017-Jun-14 17:30N 33°44' W 118°17'1 1.9
2017-Jun-14 17:00N 33°45' W 118°16'0 0.7
2017-Jun-14 16:31N 33°45' W 118°16'2 4.9
2017-Jun-14 16:01N 33°43' W 118°15'1 2.1
2017-Jun-14 15:31N 33°43' W 118°14'3 5.6
2017-Jun-14 15:00N 33°44' W 118°17'0 0.0
2017-Jun-14 14:00N 33°44' W 118°17'0 0.0
2017-Jun-14 13:30N 33°44' W 118°17'0 0.0
2017-Jun-14 12:56N 33°44' W 118°17'0 0.0
2017-Jun-14 12:10N 33°44' W 118°17'0 0.0
2017-Jun-14 12:00N 33°44' W 118°17'0 0.0
2017-Jun-14 11:30N 33°44' W 118°17'1 2.6
2017-Jun-14 11:00N 33°44' W 118°15'1 1.3
2017-Jun-14 10:30N 33°43' W 118°16'1 2.1
2017-Jun-14 10:00N 33°43' W 118°15'1 1.8
2017-Jun-14 09:30N 33°43' W 118°16'2 3.4
2017-Jun-14 09:00N 33°44' W 118°17'0 0.0
2017-Jun-14 08:30N 33°44' W 118°17'0 0.0
2017-Jun-14 08:00N 33°44' W 118°17'0 0.0
2017-Jun-14 07:30N 33°44' W 118°17'0 0.0
2017-Jun-14 07:00N 33°44' W 118°17'0 0.0
2017-Jun-14 06:30N 33°44' W 118°17'0 0.0
2017-Jun-14 06:00N 33°44' W 118°17'0 0.0
2017-Jun-14 05:30N 33°44' W 118°17'2 4.1
2017-Jun-14 05:00N 33°46' W 118°15'1 2.2
2017-Jun-14 04:30N 33°45' W 118°16'3 5.4
2017-Jun-14 04:00N 33°43' W 118°15'1 1.6
2017-Jun-14 03:30N 33°43' W 118°16'2 3.1
2017-Jun-14 03:00N 33°44' W 118°17'0 0.0
2017-Jun-14 02:30N 33°44' W 118°17'0 0.0
2017-Jun-14 02:00N 33°44' W 118°17'0 0.0
2017-Jun-14 01:30N 33°44' W 118°17'0 0.0
2017-Jun-14 01:00N 33°44' W 118°17'0 0.0
2017-Jun-14 00:30N 33°44' W 118°17'0 0.0
2017-Jun-14 00:00N 33°44' W 118°17'0 0.0
2017-Jun-13 23:30N 33°44' W 118°17'0 0.0
2017-Jun-13 23:00N 33°44' W 118°17'1 1.6
2017-Jun-13 22:31N 33°45' W 118°16'0 0.1
2017-Jun-13 22:01N 33°45' W 118°16'1 2.2
2017-Jun-13 21:30N 33°44' W 118°17'2 4.2
2017-Jun-13 21:00N 33°43' W 118°15'1 1.4
2017-Jun-13 20:30N 33°43' W 118°15'2 3.6
2017-Jun-13 20:00N 33°44' W 118°17'0 0.0
2017-Jun-13 19:30N 33°44' W 118°17'0 0.0
2017-Jun-13 19:00N 33°44' W 118°17'0 0.0
2017-Jun-13 18:30N 33°44' W 118°17'0 0.0
2017-Jun-13 18:00N 33°44' W 118°17'0 0.0
2017-Jun-13 17:30N 33°44' W 118°17'0 0.0
2017-Jun-13 17:00N 33°44' W 118°17'0 0.0
2017-Jun-13 16:27N 33°44' W 118°17'0 0.0
2017-Jun-13 16:00N 33°44' W 118°17'0 0.0
2017-Jun-13 15:30N 33°44' W 118°17'0 0.0
2017-Jun-13 15:00N 33°44' W 118°17'  
Track history (hours):
 
Tides and Currents Weather Stations Pressure Air Temp Water Temp Dewpoint Dewpoint Depression Visibility Wind Speed Wind Dir Waves Ship Positions

Admiral

Owner: Crowley Marine Services, SEATTLE, WA. More information available from US FCC via Universal Licensing System and Coast Guard Vessel Documentation Center.

Last reported at 2017-Jun-23 14:59 UTC. Time now 2017-Jun-23 15:23 UTC.
Position N 33°46' W 118°13'.

; draft 5.3 m.

Type: Tug. MMSI: 366755020.

Date/timePositionNaut miles runAvg speedWind from/ knotsBaromVisibWave heightAir tempDewpointWater temp
2017-Jun-23 14:59N 33°46' W 118°13'0 0.3
2017-Jun-23 13:54N 33°46' W 118°13'2 4.1
2017-Jun-23 13:21N 33°44' W 118°12'0 0.9
2017-Jun-23 13:00N 33°44' W 118°12'0 0.3
2017-Jun-23 12:30N 33°44' W 118°12'1 1.3
2017-Jun-23 12:00N 33°44' W 118°12'2 4.1
2017-Jun-23 11:30N 33°46' W 118°13'1 1.1
2017-Jun-23 11:00N 33°46' W 118°13'0 0.1
2017-Jun-23 10:28N 33°46' W 118°13'0 0.1
2017-Jun-23 09:59N 33°46' W 118°13'0 0.2
2017-Jun-23 09:30N 33°46' W 118°13'3 6.9
2017-Jun-23 09:00N 33°43' W 118°14'2 3.8
2017-Jun-23 08:21N 33°44' W 118°17'0 0.0
2017-Jun-23 07:50N 33°44' W 118°17'0 0.0
2017-Jun-23 07:24N 33°44' W 118°17'0 0.0
2017-Jun-23 06:45N 33°44' W 118°17'0 0.0
2017-Jun-23 06:28N 33°44' W 118°17'0 0.0
2017-Jun-23 06:00N 33°44' W 118°17'0 0.0
2017-Jun-23 05:30N 33°44' W 118°17'0 0.0
2017-Jun-23 05:00N 33°44' W 118°17'0 0.0
2017-Jun-23 04:30N 33°44' W 118°17'0 0.0
2017-Jun-23 03:59N 33°44' W 118°17'0 0.0
2017-Jun-23 03:30N 33°44' W 118°17'0 0.0
2017-Jun-23 03:00N 33°44' W 118°17'1 1.3
2017-Jun-23 02:30N 33°45' W 118°16'0 0.2
2017-Jun-23 02:00N 33°45' W 118°16'2 3.2
2017-Jun-23 01:30N 33°44' W 118°15'1 1.1
2017-Jun-23 01:00N 33°44' W 118°16'2 4.8
2017-Jun-23 00:31N 33°42' W 118°14'2 3.1
2017-Jun-23 00:00N 33°43' W 118°14'2 3.9
2017-Jun-22 23:30N 33°43' W 118°16'2 3.2
2017-Jun-22 22:54N 33°45' W 118°16'0 0.0
2017-Jun-22 22:28N 33°45' W 118°16'0 1.0
2017-Jun-22 22:00N 33°45' W 118°16'2 4.9
2017-Jun-22 21:30N 33°43' W 118°15'3 3.3
2017-Jun-22 20:44N 33°45' W 118°13'0 0.0
2017-Jun-22 20:30N 33°45' W 118°13'0 0.9
2017-Jun-22 20:00N 33°45' W 118°13'1 1.5
2017-Jun-22 19:29N 33°45' W 118°13'0 0.1
2017-Jun-22 19:00N 33°45' W 118°13'1 1.1
2017-Jun-22 18:30N 33°45' W 118°13'2 4.6
2017-Jun-22 18:00N 33°43' W 118°11'3 6.1
2017-Jun-22 17:30N 33°40' W 118°11'0 0.7
2017-Jun-22 17:00N 33°40' W 118°10'3 6.8
2017-Jun-22 16:31N 33°43' W 118°11'2 1.6
2017-Jun-22 15:04N 33°45' W 118°13'0 0.0
2017-Jun-22 14:55N 33°45' W 118°13'0 0.6
2017-Jun-22 14:30N 33°45' W 118°13'2 1.9
2017-Jun-22 13:30N 33°44' W 118°11'1 0.9
2017-Jun-22 12:54N 33°44' W 118°12'1 3.1
2017-Jun-22 12:29N 33°45' W 118°13'0 0.5
2017-Jun-22 12:00N 33°45' W 118°12'0 0.6
2017-Jun-22 11:30N 33°44' W 118°12'3 5.5
2017-Jun-22 11:00N 33°43' W 118°15'2 4.8
2017-Jun-22 10:30N 33°45' W 118°16'1 2.8
2017-Jun-22 09:59N 33°46' W 118°15'1 2.4
2017-Jun-22 09:30N 33°45' W 118°16'1 1.7
2017-Jun-22 09:00N 33°44' W 118°17'0 0.0
2017-Jun-22 08:30N 33°44' W 118°17'0 0.0
2017-Jun-22 08:00N 33°44' W 118°17'0 0.0
2017-Jun-22 07:30N 33°44' W 118°17'1 2.7
2017-Jun-22 07:00N 33°46' W 118°16'0 0.0
2017-Jun-22 06:30N 33°46' W 118°16'0 0.0
2017-Jun-22 06:00N 33°46' W 118°16'0 0.7
2017-Jun-22 05:30N 33°45' W 118°16'1 1.1
2017-Jun-22 05:00N 33°46' W 118°16'1 2.1
2017-Jun-22 04:30N 33°45' W 118°16'1 1.2
2017-Jun-22 04:00N 33°44' W 118°17'0 0.0
2017-Jun-22 03:30N 33°44' W 118°17'0 0.0
2017-Jun-22 03:00N 33°44' W 118°17'0 0.0
2017-Jun-22 02:30N 33°44' W 118°17'0 0.0
2017-Jun-22 02:00N 33°44' W 118°17'0 0.0
2017-Jun-22 01:30N 33°44' W 118°17'0 0.0
2017-Jun-22 01:00N 33°44' W 118°17'2 3.1
2017-Jun-22 00:30N 33°43' W 118°17'0 1.0
2017-Jun-22 00:01N 33°43' W 118°16'2 5.0
2017-Jun-21 23:31N 33°44' W 118°13'0 0.1
2017-Jun-21 23:01N 33°44' W 118°13'0 0.2
2017-Jun-21 22:30N 33°44' W 118°14'1 1.4
2017-Jun-21 22:00N 33°45' W 118°13'1 1.7
2017-Jun-21 21:30N 33°45' W 118°14'1 2.6
2017-Jun-21 21:00N 33°44' W 118°13'3 5.7
2017-Jun-21 20:30N 33°45' W 118°17'0 0.5
2017-Jun-21 20:00N 33°44' W 118°17'0 0.0
2017-Jun-21 19:30N 33°44' W 118°17'0 0.0
2017-Jun-21 19:00N 33°44' W 118°17'0 0.0
2017-Jun-21 18:30N 33°44' W 118°17'0 0.0
2017-Jun-21 18:00N 33°44' W 118°17'0 0.0
2017-Jun-21 17:30N 33°44' W 118°17'0 0.0
2017-Jun-21 17:00N 33°44' W 118°17'0 0.0
2017-Jun-21 16:30N 33°44' W 118°17'0 0.0
2017-Jun-21 16:00N 33°44' W 118°17'0 0.0
2017-Jun-21 15:27N 33°44' W 118°17'2 3.7
2017-Jun-21 15:00N 33°43' W 118°16'3 6.6
2017-Jun-21 14:30N 33°45' W 118°13'0 0.2
2017-Jun-21 13:24N 33°45' W 118°13'2 4.0
2017-Jun-21 12:54N 33°44' W 118°12'0 0.4
2017-Jun-21 12:30N 33°44' W 118°12'2 3.4
2017-Jun-21 12:00N 33°43' W 118°14'3 5.4
2017-Jun-21 11:30N 33°44' W 118°17'0 0.4
2017-Jun-21 11:00N 33°44' W 118°17'0 0.0
2017-Jun-21 10:30N 33°44' W 118°17'0 0.0
2017-Jun-21 10:00N 33°44' W 118°17'0 0.0
2017-Jun-21 09:30N 33°44' W 118°17'0 0.0
2017-Jun-21 09:00N 33°44' W 118°17'0 0.0
2017-Jun-21 08:30N 33°44' W 118°17'0 0.0
2017-Jun-21 08:00N 33°44' W 118°17'0 0.0
2017-Jun-21 07:30N 33°44' W 118°17'0 0.0
2017-Jun-21 07:00N 33°44' W 118°17'0 0.0
2017-Jun-21 06:30N 33°44' W 118°17'0 0.0
2017-Jun-21 06:00N 33°44' W 118°17'0 0.0
2017-Jun-21 05:30N 33°44' W 118°17'0 0.0
2017-Jun-21 05:00N 33°44' W 118°17'0 0.0
2017-Jun-21 04:30N 33°44' W 118°17'0 0.0
2017-Jun-21 04:00N 33°44' W 118°17'0 0.0
2017-Jun-21 03:30N 33°44' W 118°17'0 0.0
2017-Jun-21 03:00N 33°44' W 118°17'0 0.0
2017-Jun-21 02:30N 33°44' W 118°17'1 2.1
2017-Jun-21 02:00N 33°45' W 118°16'1 1.1
2017-Jun-21 01:30N 33°46' W 118°16'0 0.1
2017-Jun-21 01:00N 33°46' W 118°16'0 0.9
2017-Jun-21 00:30N 33°45' W 118°16'2 4.1
2017-Jun-21 00:01N 33°43' W 118°16'1 2.7
2017-Jun-20 23:31N 33°43' W 118°15'2 3.0
2017-Jun-20 23:00N 33°44' W 118°16'2 4.6
2017-Jun-20 22:30N 33°46' W 118°16'0 0.3
2017-Jun-20 22:00N 33°46' W 118°16'1 1.9
2017-Jun-20 21:30N 33°45' W 118°16'2 5.0
2017-Jun-20 21:00N 33°43' W 118°15'1 2.3
2017-Jun-20 20:31N 33°43' W 118°16'1 2.5
2017-Jun-20 20:00N 33°44' W 118°17'0 0.0
2017-Jun-20 19:30N 33°44' W 118°17'0 0.0
2017-Jun-20 19:01N 33°44' W 118°17'0 0.0
2017-Jun-20 18:30N 33°44' W 118°17'0 0.0
2017-Jun-20 18:00N 33°44' W 118°17'0 0.0
2017-Jun-20 17:30N 33°44' W 118°17'0 0.0
2017-Jun-20 17:00N 33°44' W 118°17'0 0.0
2017-Jun-20 16:30N 33°44' W 118°17'0 0.0
2017-Jun-20 16:00N 33°44' W 118°17'0 0.0
2017-Jun-20 15:30N 33°44' W 118°17'0 0.0
2017-Jun-20 14:56N 33°44' W 118°17'3 3.5
2017-Jun-20 14:00N 33°45' W 118°13'1 1.9
2017-Jun-20 13:29N 33°45' W 118°13'0 0.1
2017-Jun-20 13:00N 33°45' W 118°13'0 0.1
2017-Jun-20 12:27N 33°46' W 118°13'0 0.0
2017-Jun-20 12:00N 33°46' W 118°13'1 2.1
2017-Jun-20 11:30N 33°45' W 118°14'0 0.4
2017-Jun-20 11:00N 33°45' W 118°14'2 4.4
2017-Jun-20 10:30N 33°44' W 118°12'0 0.5
2017-Jun-20 09:59N 33°44' W 118°12'1 1.7
2017-Jun-20 09:26N 33°43' W 118°13'3 7.1
2017-Jun-20 09:00N 33°44' W 118°16'1 1.3
2017-Jun-20 08:30N 33°44' W 118°17'0 0.0
2017-Jun-20 08:00N 33°44' W 118°17'0 0.0
2017-Jun-20 07:30N 33°44' W 118°17'0 0.0
2017-Jun-20 07:00N 33°44' W 118°17'0 0.0
2017-Jun-20 06:30N 33°44' W 118°17'0 0.0
2017-Jun-20 05:59N 33°44' W 118°17'0 0.0
2017-Jun-20 05:30N 33°44' W 118°17'0 0.0
2017-Jun-20 05:00N 33°44' W 118°17'2 3.2
2017-Jun-20 04:30N 33°43' W 118°16'3 6.7
2017-Jun-20 04:00N 33°46' W 118°13'1 1.2
2017-Jun-20 03:30N 33°46' W 118°13'0 0.0
2017-Jun-20 03:00N 33°46' W 118°13'2 3.1
2017-Jun-20 02:30N 33°45' W 118°13'2 4.6
2017-Jun-20 02:01N 33°43' W 118°11'0 0.4
2017-Jun-20 01:31N 33°43' W 118°11'3 5.4
2017-Jun-20 01:01N 33°46' W 118°13'1 1.7
2017-Jun-20 00:30N 33°46' W 118°13'0 0.7
2017-Jun-20 00:00N 33°46' W 118°13'1 2.0
2017-Jun-19 23:30N 33°45' W 118°13'0 0.0
2017-Jun-19 23:00N 33°45' W 118°13'1 2.0
2017-Jun-19 22:30N 33°44' W 118°13'2 3.9
2017-Jun-19 22:00N 33°44' W 118°16'0 0.8
2017-Jun-19 21:30N 33°43' W 118°16'1 2.3
2017-Jun-19 21:01N 33°43' W 118°15'0 0.7
2017-Jun-19 20:30N 33°43' W 118°15'2 4.3
2017-Jun-19 20:00N 33°44' W 118°17'0 0.0
2017-Jun-19 19:29N 33°44' W 118°17'0 0.0
2017-Jun-19 19:00N 33°44' W 118°17'0 0.0
2017-Jun-19 18:08N 33°44' W 118°17'0 1.5
2017-Jun-19 18:00N 33°44' W 118°17'3 5.4
2017-Jun-19 17:31N 33°44' W 118°13'1 2.4
2017-Jun-19 17:00N 33°45' W 118°13'1 2.2
2017-Jun-19 16:31N 33°44' W 118°13'1 1.2
2017-Jun-19 16:00N 33°44' W 118°12'0 0.4
2017-Jun-19 15:30N 33°44' W 118°13'0 0.1
2017-Jun-19 15:00N 33°44' W 118°12'1 1.9
2017-Jun-19 14:30N 33°45' W 118°13'2 2.1
2017-Jun-19 13:30N 33°44' W 118°11'2 3.2
2017-Jun-19 13:00N 33°44' W 118°12'2 4.0
2017-Jun-19 12:30N 33°45' W 118°15'0 0.1
2017-Jun-19 12:00N 33°45' W 118°14'1 2.1
2017-Jun-19 11:31N 33°45' W 118°13'2 3.9
2017-Jun-19 11:00N 33°44' W 118°11'0 0.6
2017-Jun-19 10:30N 33°44' W 118°12'1 2.7
2017-Jun-19 10:00N 33°43' W 118°13'3 6.0
2017-Jun-19 09:30N 33°44' W 118°17'0 0.0
2017-Jun-19 09:00N 33°44' W 118°17'1 1.4
2017-Jun-19 08:31N 33°45' W 118°16'0 0.5
2017-Jun-19 08:00N 33°45' W 118°16'1 1.9
2017-Jun-19 07:31N 33°44' W 118°17'3 4.9
2017-Jun-19 06:59N 33°43' W 118°14'3 6.9
2017-Jun-19 06:30N 33°44' W 118°10'0 0.5
2017-Jun-19 05:58N 33°44' W 118°10'0 0.2
2017-Jun-19 05:30N 33°44' W 118°10'3 5.1
2017-Jun-19 05:00N 33°43' W 118°13'3 6.8
2017-Jun-19 04:30N 33°44' W 118°17'0 0.4
2017-Jun-19 04:00N 33°44' W 118°17'0 0.0
2017-Jun-19 03:30N 33°44' W 118°17'0 0.0
2017-Jun-19 03:00N 33°44' W 118°17'0 0.0
2017-Jun-19 02:30N 33°44' W 118°17'1 2.6
2017-Jun-19 02:00N 33°43' W 118°16'1 1.7
2017-Jun-19 01:31N 33°44' W 118°15'0 0.3
2017-Jun-19 01:00N 33°44' W 118°15'1 1.3
2017-Jun-19 00:30N 33°44' W 118°16'1 2.4
2017-Jun-19 00:00N 33°44' W 118°17'0 0.0
2017-Jun-18 23:30N 33°44' W 118°17'0 0.0
2017-Jun-18 23:00N 33°44' W 118°17'0 0.0
2017-Jun-18 22:30N 33°44' W 118°17'0 0.0
2017-Jun-18 22:00N 33°44' W 118°17'0 0.0
2017-Jun-18 21:30N 33°44' W 118°17'0 0.0
2017-Jun-18 21:00N 33°44' W 118°17'0 0.0
2017-Jun-18 20:30N 33°44' W 118°17'0 0.0
2017-Jun-18 20:00N 33°44' W 118°17'0 0.0
2017-Jun-18 19:28N 33°44' W 118°17'0 0.0
2017-Jun-18 18:52N 33°44' W 118°17'0 0.0
2017-Jun-18 17:30N 33°44' W 118°17'0 0.0
2017-Jun-18 16:57N 33°44' W 118°17'0 0.0
2017-Jun-18 16:30N 33°44' W 118°17'0 0.0
2017-Jun-18 16:00N 33°44' W 118°17'2 4.4
2017-Jun-18 15:30N 33°43' W 118°15'4 7.3
2017-Jun-18 15:00N 33°46' W 118°13'0 0.0
2017-Jun-18 14:30N 33°46' W 118°13'0 0.3
2017-Jun-18 14:00N 33°46' W 118°13'1 2.0
2017-Jun-18 13:30N 33°45' W 118°13'2 4.2
2017-Jun-18 13:00N 33°43' W 118°12'0 0.7
2017-Jun-18 12:30N 33°44' W 118°12'0 0.8
2017-Jun-18 12:00N 33°44' W 118°12'2 4.6
2017-Jun-18 11:30N 33°46' W 118°13'0 0.2
2017-Jun-18 10:57N 33°46' W 118°13'1 1.6
2017-Jun-18 10:30N 33°45' W 118°13'0 0.0
2017-Jun-18 10:00N 33°45' W 118°13'0 0.0
2017-Jun-18 09:30N 33°45' W 118°13'0 0.0
2017-Jun-18 09:00N 33°45' W 118°13'0 0.0
2017-Jun-18 08:30N 33°45' W 118°13'0 0.0
2017-Jun-18 08:00N 33°45' W 118°13'0 0.6
2017-Jun-18 07:30N 33°45' W 118°13'2 3.4
2017-Jun-18 07:00N 33°44' W 118°12'3 5.4
2017-Jun-18 06:30N 33°41' W 118°11'1 2.9
2017-Jun-18 06:01N 33°40' W 118°10'1 1.9
2017-Jun-18 05:30N 33°40' W 118°09'2 5.0
2017-Jun-18 05:01N 33°42' W 118°10'4 7.7
2017-Jun-18 04:30N 33°45' W 118°13'1 2.2
2017-Jun-18 04:00N 33°46' W 118°13'0 0.2
2017-Jun-18 03:30N 33°46' W 118°13'1 2.6
2017-Jun-18 03:00N 33°45' W 118°13'0 0.0
2017-Jun-18 02:30N 33°45' W 118°13'0 0.0
2017-Jun-18 02:00N 33°45' W 118°13'0 0.0
2017-Jun-18 01:30N 33°45' W 118°13'0 0.0
2017-Jun-18 01:00N 33°45' W 118°13'0 0.0
2017-Jun-18 00:30N 33°45' W 118°13'0 0.0
2017-Jun-18 00:00N 33°45' W 118°13'0 0.0
2017-Jun-17 23:30N 33°45' W 118°13'0 0.0
2017-Jun-17 23:00N 33°45' W 118°13'0 0.0
2017-Jun-17 22:30N 33°45' W 118°13'0 0.0
2017-Jun-17 22:00N 33°45' W 118°13'0 0.0
2017-Jun-17 21:30N 33°45' W 118°13'0 0.0
2017-Jun-17 21:00N 33°45' W 118°13'0 0.1
2017-Jun-17 20:30N 33°45' W 118°13'1 2.6
2017-Jun-17 20:00N 33°46' W 118°13'2 3.2
2017-Jun-17 19:30N 33°45' W 118°13'2 3.4
2017-Jun-17 19:00N 33°44' W 118°12'2 3.9
2017-Jun-17 18:30N 33°45' W 118°13'1 2.8
2017-Jun-17 18:00N 33°46' W 118°13'0 0.4
2017-Jun-17 17:30N 33°46' W 118°13'0 0.0
2017-Jun-17 17:00N 33°46' W 118°13'0 0.0
2017-Jun-17 16:30N 33°46' W 118°13'1 2.7
2017-Jun-17 16:00N 33°45' W 118°13'0 0.0
2017-Jun-17 15:26N 33°45' W 118°13'0 0.0
2017-Jun-17 14:46N 33°45' W 118°13'0 0.0
2017-Jun-17 14:29N 33°45' W 118°13'0 0.0
2017-Jun-17 13:30N 33°45' W 118°13'0 0.6
2017-Jun-17 13:01N 33°45' W 118°13'1 2.5
2017-Jun-17 12:31N 33°44' W 118°12'0 0.8
2017-Jun-17 12:01N 33°44' W 118°12'0 0.3
2017-Jun-17 11:30N 33°44' W 118°12'3 6.6
2017-Jun-17 11:01N 33°43' W 118°16'1 2.9
2017-Jun-17 10:30N 33°44' W 118°17'0 0.0
2017-Jun-17 09:59N 33°44' W 118°17'0 0.0
2017-Jun-17 09:30N 33°44' W 118°17'0 0.0
2017-Jun-17 09:00N 33°44' W 118°17'0 0.0
2017-Jun-17 08:30N 33°44' W 118°17'0 0.0
2017-Jun-17 08:00N 33°44' W 118°17'0 0.0
2017-Jun-17 07:30N 33°44' W 118°17'0 0.0
2017-Jun-17 07:00N 33°44' W 118°17'0 0.0
2017-Jun-17 06:30N 33°44' W 118°17'0 0.0
2017-Jun-17 06:00N 33°44' W 118°17'2 1.9
2017-Jun-17 05:07N 33°46' W 118°16'0 0.8
2017-Jun-17 05:00N 33°46' W 118°16'0 0.6
2017-Jun-17 04:30N 33°45' W 118°16'3 4.5
2017-Jun-17 03:54N 33°43' W 118°15'1 3.1
2017-Jun-17 03:30N 33°43' W 118°14'0 0.1
2017-Jun-17 03:00N 33°43' W 118°14'3 5.5
2017-Jun-17 02:30N 33°44' W 118°17'0 0.0
2017-Jun-17 01:59N 33°44' W 118°17'0 0.0
2017-Jun-17 01:24N 33°44' W 118°17'0 0.0
2017-Jun-17 00:59N 33°44' W 118°17'0 0.0
2017-Jun-17 00:21N 33°44' W 118°17'0 0.0
2017-Jun-17 00:00N 33°44' W 118°17'0 0.0
2017-Jun-16 23:30N 33°44' W 118°17'0 0.0
2017-Jun-16 23:00N 33°44' W 118°17'0 0.0
2017-Jun-16 22:30N 33°44' W 118°17'0 0.0
2017-Jun-16 22:00N 33°44' W 118°17'0 0.0
2017-Jun-16 21:30N 33°44' W 118°17'0 0.0
2017-Jun-16 21:00N 33°44' W 118°17'0 0.0
2017-Jun-16 20:30N 33°44' W 118°17'0 0.0
2017-Jun-16 20:00N 33°44' W 118°17'0 0.0
2017-Jun-16 19:30N 33°44' W 118°17'0 0.0
2017-Jun-16 19:00N 33°44' W 118°17'0 0.0
2017-Jun-16 18:30N 33°44' W 118°17'0 0.0
2017-Jun-16 18:00N 33°44' W 118°17'0 0.0
2017-Jun-16 17:30N 33°44' W 118°17'0 0.0
2017-Jun-16 16:59N 33°44' W 118°17'2 3.4
2017-Jun-16 16:30N 33°43' W 118°16'4 7.1
2017-Jun-16 16:01N 33°46' W 118°13'0 0.7
2017-Jun-16 15:30N 33°46' W 118°13'0 0.3
2017-Jun-16 15:00N 33°46' W 118°13'3 2.7
2017-Jun-16 14:00N 33°44' W 118°13'1 2.6
2017-Jun-16 13:30N 33°43' W 118°14'2 3.9
2017-Jun-16 13:00N 33°44' W 118°16'2 3.2
2017-Jun-16 12:31N 33°45' W 118°17'0 0.8
2017-Jun-16 12:00N 33°46' W 118°17'0 0.1
2017-Jun-16 11:30N 33°46' W 118°17'0 0.1
2017-Jun-16 11:00N 33°46' W 118°17'1 3.0
2017-Jun-16 10:30N 33°44' W 118°17'0 0.0
2017-Jun-16 10:00N 33°44' W 118°17'0 0.0
2017-Jun-16 09:30N 33°44' W 118°17'0 0.0
2017-Jun-16 09:00N 33°44' W 118°17'0 0.0
2017-Jun-16 08:30N 33°44' W 118°17'0 0.0
2017-Jun-16 08:00N 33°44' W 118°17'0 0.0
2017-Jun-16 07:30N 33°44' W 118°17'0 0.0
2017-Jun-16 07:00N 33°44' W 118°17'0 0.0
2017-Jun-16 06:30N 33°44' W 118°17'0 0.0
2017-Jun-16 06:00N 33°44' W 118°17'0 0.0
2017-Jun-16 05:30N 33°44' W 118°17'0 0.0
2017-Jun-16 04:53N 33°44' W 118°17'0 0.0
2017-Jun-16 04:29N 33°44' W 118°17'0 0.0
2017-Jun-16 04:00N 33°44' W 118°17'0 0.0
2017-Jun-16 03:20N 33°44' W 118°17'0 0.0
2017-Jun-16 02:59N 33°44' W 118°17'0 0.0
2017-Jun-16 02:27N 33°44' W 118°17'0 0.0
2017-Jun-16 02:00N 33°44' W 118°17'0 0.0
2017-Jun-16 01:30N 33°44' W 118°17'0 0.0
2017-Jun-16 01:00N 33°44' W 118°17'0 0.0
2017-Jun-16 00:30N 33°44' W 118°17'0 0.0
2017-Jun-16 00:00N 33°44' W 118°17'0 0.0
2017-Jun-15 23:30N 33°44' W 118°17'2 3.0
2017-Jun-15 23:00N 33°44' W 118°15'0 0.0
2017-Jun-15 22:30N 33°44' W 118°15'1 2.1
2017-Jun-15 22:00N 33°43' W 118°16'1 2.2
2017-Jun-15 21:31N 33°43' W 118°15'1 2.7
2017-Jun-15 21:01N 33°43' W 118°16'1 2.5
2017-Jun-15 20:30N 33°44' W 118°17'0 0.0
2017-Jun-15 20:00N 33°44' W 118°17'0 0.0
2017-Jun-15 19:30N 33°44' W 118°17'0 0.0
2017-Jun-15 19:00N 33°44' W 118°17'0 0.0
2017-Jun-15 18:30N 33°44' W 118°17'0 0.0
2017-Jun-15 18:00N 33°44' W 118°17'0 0.0
2017-Jun-15 17:30N 33°44' W 118°17'0 0.0
2017-Jun-15 17:00N 33°44' W 118°17'1 1.4
2017-Jun-15 16:30N 33°44' W 118°16'2 4.3
2017-Jun-15 16:01N 33°43' W 118°14'2 4.9
2017-Jun-15 15:30N 33°44' W 118°17'1 2.2
2017-Jun-15 15:00N 33°45' W 118°16'0 0.1
2017-Jun-15 14:00N 33°45' W 118°16'1 2.4
2017-Jun-15 13:31N 33°44' W 118°17'2 3.1
2017-Jun-15 13:00N 33°46' W 118°16'0 0.7
2017-Jun-15 12:30N 33°45' W 118°16'0 0.0
2017-Jun-15 12:00N 33°45' W 118°16'0 0.0
2017-Jun-15 11:31N 33°45' W 118°16'2 4.9
2017-Jun-15 11:00N 33°43' W 118°16'1 2.1
2017-Jun-15 10:30N 33°44' W 118°15'1 1.5
2017-Jun-15 10:00N 33°43' W 118°16'1 2.7
2017-Jun-15 09:30N 33°44' W 118°17'0 0.0
2017-Jun-15 09:00N 33°44' W 118°17'0 0.0
2017-Jun-15 08:30N 33°44' W 118°17'0 0.0
2017-Jun-15 08:00N 33°44' W 118°17'0 0.0
2017-Jun-15 07:30N 33°44' W 118°17'0 0.0
2017-Jun-15 07:00N 33°44' W 118°17'0 0.1
2017-Jun-15 06:30N 33°44' W 118°17'0 0.0
2017-Jun-15 06:00N 33°44' W 118°17'0 0.0
2017-Jun-15 05:30N 33°44' W 118°17'0 0.0
2017-Jun-15 05:00N 33°44' W 118°17'0 0.0
2017-Jun-15 04:29N 33°44' W 118°17'0 0.0
2017-Jun-15 04:00N 33°44' W 118°17'0 0.0
2017-Jun-15 03:30N 33°44' W 118°17'0 0.0
2017-Jun-15 03:00N 33°44' W 118°17'0 0.0
2017-Jun-15 02:30N 33°44' W 118°17'0 0.0
2017-Jun-15 01:56N 33°44' W 118°17'0 0.0
2017-Jun-15 01:30N 33°44' W 118°17'1 2.0
2017-Jun-15 01:01N 33°45' W 118°16'1 1.4
2017-Jun-15 00:30N 33°46' W 118°15'2 2.7
2017-Jun-14 23:53N 33°44' W 118°17'0 0.0
2017-Jun-14 23:30N 33°44' W 118°17'0 0.0
2017-Jun-14 23:00N 33°44' W 118°17'0 0.0
2017-Jun-14 22:30N 33°44' W 118°17'0 0.0
2017-Jun-14 22:00N 33°44' W 118°17'0 0.0
2017-Jun-14 21:30N 33°44' W 118°17'1 1.8
2017-Jun-14 21:00N 33°44' W 118°16'2 3.2
2017-Jun-14 20:30N 33°45' W 118°16'0 0.0
2017-Jun-14 20:01N 33°45' W 118°16'1 2.0
2017-Jun-14 19:30N 33°44' W 118°17'0 0.0
2017-Jun-14 19:00N 33°44' W 118°17'0 0.0
2017-Jun-14 18:30N 33°44' W 118°17'0 0.0
2017-Jun-14 18:00N 33°44' W 118°17'0 0.0
2017-Jun-14 17:30N 33°44' W 118°17'1 1.9
2017-Jun-14 17:00N 33°45' W 118°16'0 0.7
2017-Jun-14 16:31N 33°45' W 118°16'2 4.9
2017-Jun-14 16:01N 33°43' W 118°15'1 2.1
2017-Jun-14 15:31N 33°43' W 118°14'3 5.6
2017-Jun-14 15:00N 33°44' W 118°17'0 0.0
2017-Jun-14 14:00N 33°44' W 118°17'0 0.0
2017-Jun-14 13:30N 33°44' W 118°17'0 0.0
2017-Jun-14 12:56N 33°44' W 118°17'0 0.0
2017-Jun-14 12:10N 33°44' W 118°17'0 0.0
2017-Jun-14 12:00N 33°44' W 118°17'0 0.0
2017-Jun-14 11:30N 33°44' W 118°17'1 2.6
2017-Jun-14 11:00N 33°44' W 118°15'1 1.3
2017-Jun-14 10:30N 33°43' W 118°16'1 2.1
2017-Jun-14 10:00N 33°43' W 118°15'1 1.8
2017-Jun-14 09:30N 33°43' W 118°16'2 3.4
2017-Jun-14 09:00N 33°44' W 118°17'0 0.0
2017-Jun-14 08:30N 33°44' W 118°17'0 0.0
2017-Jun-14 08:00N 33°44' W 118°17'0 0.0
2017-Jun-14 07:30N 33°44' W 118°17'0 0.0
2017-Jun-14 07:00N 33°44' W 118°17'0 0.0
2017-Jun-14 06:30N 33°44' W 118°17'0 0.0
2017-Jun-14 06:00N 33°44' W 118°17'0 0.0
2017-Jun-14 05:30N 33°44' W 118°17'2 4.1
2017-Jun-14 05:00N 33°46' W 118°15'1 2.2
2017-Jun-14 04:30N 33°45' W 118°16'3 5.4
2017-Jun-14 04:00N 33°43' W 118°15'1 1.6
2017-Jun-14 03:30N 33°43' W 118°16'2 3.1
2017-Jun-14 03:00N 33°44' W 118°17'0 0.0
2017-Jun-14 02:30N 33°44' W 118°17'0 0.0
2017-Jun-14 02:00N 33°44' W 118°17'0 0.0
2017-Jun-14 01:30N 33°44' W 118°17'0 0.0
2017-Jun-14 01:00N 33°44' W 118°17'0 0.0
2017-Jun-14 00:30N 33°44' W 118°17'0 0.0
2017-Jun-14 00:00N 33°44' W 118°17'0 0.0
2017-Jun-13 23:30N 33°44' W 118°17'0 0.0
2017-Jun-13 23:00N 33°44' W 118°17'1 1.6
2017-Jun-13 22:31N 33°45' W 118°16'0 0.1
2017-Jun-13 22:01N 33°45' W 118°16'1 2.2
2017-Jun-13 21:30N 33°44' W 118°17'2 4.2
2017-Jun-13 21:00N 33°43' W 118°15'1 1.4
2017-Jun-13 20:30N 33°43' W 118°15'2 3.6
2017-Jun-13 20:00N 33°44' W 118°17'0 0.0
2017-Jun-13 19:30N 33°44' W 118°17'0 0.0
2017-Jun-13 19:00N 33°44' W 118°17'0 0.0
2017-Jun-13 18:30N 33°44' W 118°17'0 0.0
2017-Jun-13 18:00N 33°44' W 118°17'0 0.0
2017-Jun-13 17:30N 33°44' W 118°17'0 0.0
2017-Jun-13 17:00N 33°44' W 118°17'0 0.0
2017-Jun-13 16:27N 33°44' W 118°17'0 0.0
2017-Jun-13 16:00N 33°44' W 118°17'0 0.0
2017-Jun-13 15:30N 33°44' W 118°17'0 0.0
2017-Jun-13 15:00N 33°44' W 118°17'  

Dump ship's entire track history